sensor_id;sensor_type;location;lat;lon;timestamp;temperature;humidity
19397;DHT22;9834;48.076;11.878;2023-02-10T00:02:23;-5.00;99.90
19397;DHT22;9834;48.076;11.878;2023-02-10T00:04:50;-5.00;99.90
19397;DHT22;9834;48.076;11.878;2023-02-10T00:07:18;-5.00;99.90
19397;DHT22;9834;48.076;11.878;2023-02-10T00:09:47;-5.00;99.90
19397;DHT22;9834;48.076;11.878;2023-02-10T00:12:15;-5.00;99.90
19397;DHT22;9834;48.076;11.878;2023-02-10T00:14:43;-5.00;99.90
19397;DHT22;9834;48.076;11.878;2023-02-10T00:17:11;-4.90;99.90
19397;DHT22;9834;48.076;11.878;2023-02-10T00:19:38;-4.90;99.90
19397;DHT22;9834;48.076;11.878;2023-02-10T00:22:06;-4.90;99.90
19397;DHT22;9834;48.076;11.878;2023-02-10T00:24:33;-4.90;99.90
19397;DHT22;9834;48.076;11.878;2023-02-10T00:27:01;-4.90;99.90
19397;DHT22;9834;48.076;11.878;2023-02-10T00:29:29;-5.00;99.90
19397;DHT22;9834;48.076;11.878;2023-02-10T00:31:59;-5.00;99.90
19397;DHT22;9834;48.076;11.878;2023-02-10T00:34:26;-5.10;99.90
19397;DHT22;9834;48.076;11.878;2023-02-10T00:36:54;-5.10;99.90
19397;DHT22;9834;48.076;11.878;2023-02-10T00:39:22;-5.10;99.90
19397;DHT22;9834;48.076;11.878;2023-02-10T00:41:49;-5.20;99.90
19397;DHT22;9834;48.076;11.878;2023-02-10T00:44:17;-5.20;99.90
19397;DHT22;9834;48.076;11.878;2023-02-10T00:46:44;-5.20;99.90
19397;DHT22;9834;48.076;11.878;2023-02-10T00:49:13;-5.30;99.90
19397;DHT22;9834;48.076;11.878;2023-02-10T00:51:40;-5.30;99.90
19397;DHT22;9834;48.076;11.878;2023-02-10T00:54:08;-5.30;99.90
19397;DHT22;9834;48.076;11.878;2023-02-10T00:56:35;-5.40;99.90
19397;DHT22;9834;48.076;11.878;2023-02-10T00:59:03;-5.40;99.90
19397;DHT22;9834;48.076;11.878;2023-02-10T01:01:30;-5.50;99.90
19397;DHT22;9834;48.076;11.878;2023-02-10T01:03:58;-5.50;99.90
19397;DHT22;9834;48.076;11.878;2023-02-10T01:06:27;-5.50;99.90
19397;DHT22;9834;48.076;11.878;2023-02-10T01:08:55;-5.50;99.90
19397;DHT22;9834;48.076;11.878;2023-02-10T01:11:22;-5.50;99.90
19397;DHT22;9834;48.076;11.878;2023-02-10T01:13:49;-5.50;99.90
19397;DHT22;9834;48.076;11.878;2023-02-10T01:16:17;-5.50;99.90
19397;DHT22;9834;48.076;11.878;2023-02-10T01:18:45;-5.50;99.90
19397;DHT22;9834;48.076;11.878;2023-02-10T01:21:15;-5.50;99.90
19397;DHT22;9834;48.076;11.878;2023-02-10T01:23:45;-5.60;99.90
19397;DHT22;9834;48.076;11.878;2023-02-10T01:26:13;-5.60;99.90
19397;DHT22;9834;48.076;11.878;2023-02-10T01:28:41;-5.60;99.90
19397;DHT22;9834;48.076;11.878;2023-02-10T01:31:11;-5.60;99.90
19397;DHT22;9834;48.076;11.878;2023-02-10T01:33:38;-5.60;99.90
19397;DHT22;9834;48.076;11.878;2023-02-10T01:36:09;-5.60;99.90
19397;DHT22;9834;48.076;11.878;2023-02-10T01:38:37;-5.60;99.90
19397;DHT22;9834;48.076;11.878;2023-02-10T01:41:06;-5.60;99.90
19397;DHT22;9834;48.076;11.878;2023-02-10T01:43:51;-5.60;99.90
19397;DHT22;9834;48.076;11.878;2023-02-10T01:46:20;-5.60;99.90
19397;DHT22;9834;48.076;11.878;2023-02-10T01:48:47;-5.50;99.90
19397;DHT22;9834;48.076;11.878;2023-02-10T01:51:16;-5.40;99.90
19397;DHT22;9834;48.076;11.878;2023-02-10T01:53:46;-5.40;99.90
19397;DHT22;9834;48.076;11.878;2023-02-10T01:56:15;-5.30;99.90
19397;DHT22;9834;48.076;11.878;2023-02-10T01:58:44;-5.30;99.90
19397;DHT22;9834;48.076;11.878;2023-02-10T02:01:11;-5.40;99.90
19397;DHT22;9834;48.076;11.878;2023-02-10T02:03:39;-5.00;99.90
19397;DHT22;9834;48.076;11.878;2023-02-10T02:06:07;-4.80;99.90
19397;DHT22;9834;48.076;11.878;2023-02-10T02:08:36;-4.80;99.90
19397;DHT22;9834;48.076;11.878;2023-02-10T02:11:18;-4.70;99.90
19397;DHT22;9834;48.076;11.878;2023-02-10T02:14:06;-4.70;99.90
19397;DHT22;9834;48.076;11.878;2023-02-10T02:16:59;-4.70;99.90
19397;DHT22;9834;48.076;11.878;2023-02-10T02:20:06;-4.70;99.90
19397;DHT22;9834;48.076;11.878;2023-02-10T02:23:19;-4.60;99.90
19397;DHT22;9834;48.076;11.878;2023-02-10T02:26:09;-4.70;99.90
19397;DHT22;9834;48.076;11.878;2023-02-10T02:28:54;-4.60;99.90
19397;DHT22;9834;48.076;11.878;2023-02-10T02:31:45;-4.60;99.90
19397;DHT22;9834;48.076;11.878;2023-02-10T02:34:20;-4.60;99.90
19397;DHT22;9834;48.076;11.878;2023-02-10T02:36:51;-4.60;99.90
19397;DHT22;9834;48.076;11.878;2023-02-10T02:39:21;-4.70;99.90
19397;DHT22;9834;48.076;11.878;2023-02-10T02:41:59;-4.70;99.90
19397;DHT22;9834;48.076;11.878;2023-02-10T02:44:32;-4.70;99.90
19397;DHT22;9834;48.076;11.878;2023-02-10T02:47:07;-4.80;99.90
19397;DHT22;9834;48.076;11.878;2023-02-10T02:49:41;-4.80;99.90
19397;DHT22;9834;48.076;11.878;2023-02-10T02:52:12;-4.80;99.90
19397;DHT22;9834;48.076;11.878;2023-02-10T02:54:46;-4.80;99.90
19397;DHT22;9834;48.076;11.878;2023-02-10T02:57:21;-4.80;99.90
19397;DHT22;9834;48.076;11.878;2023-02-10T02:59:51;-4.80;99.90
19397;DHT22;9834;48.076;11.878;2023-02-10T03:02:22;-4.90;99.90
19397;DHT22;9834;48.076;11.878;2023-02-10T03:04:49;-5.00;99.90
19397;DHT22;9834;48.076;11.878;2023-02-10T03:07:17;-5.00;99.90
19397;DHT22;9834;48.076;11.878;2023-02-10T03:09:44;-5.00;99.90
19397;DHT22;9834;48.076;11.878;2023-02-10T03:12:12;-5.10;99.90
19397;DHT22;9834;48.076;11.878;2023-02-10T03:14:39;-5.10;99.90
19397;DHT22;9834;48.076;11.878;2023-02-10T03:17:07;-5.10;99.90
19397;DHT22;9834;48.076;11.878;2023-02-10T03:19:36;-5.20;99.90
19397;DHT22;9834;48.076;11.878;2023-02-10T03:22:03;-5.20;99.90
19397;DHT22;9834;48.076;11.878;2023-02-10T03:24:31;-5.30;99.90
19397;DHT22;9834;48.076;11.878;2023-02-10T03:26:58;-5.30;99.90
19397;DHT22;9834;48.076;11.878;2023-02-10T03:29:25;-5.30;99.90
19397;DHT22;9834;48.076;11.878;2023-02-10T03:31:53;-5.40;99.90
19397;DHT22;9834;48.076;11.878;2023-02-10T03:34:21;-5.40;99.90
19397;DHT22;9834;48.076;11.878;2023-02-10T03:36:49;-5.50;99.90
19397;DHT22;9834;48.076;11.878;2023-02-10T03:39:17;-5.50;99.90
19397;DHT22;9834;48.076;11.878;2023-02-10T03:41:45;-5.60;99.90
19397;DHT22;9834;48.076;11.878;2023-02-10T03:44:12;-5.60;99.90
19397;DHT22;9834;48.076;11.878;2023-02-10T03:46:40;-5.60;99.90
19397;DHT22;9834;48.076;11.878;2023-02-10T03:49:07;-5.70;99.90
19397;DHT22;9834;48.076;11.878;2023-02-10T03:51:34;-5.70;99.90
19397;DHT22;9834;48.076;11.878;2023-02-10T03:54:03;-5.70;99.90
19397;DHT22;9834;48.076;11.878;2023-02-10T03:56:31;-5.80;99.90
19397;DHT22;9834;48.076;11.878;2023-02-10T03:59:00;-5.80;99.90
19397;DHT22;9834;48.076;11.878;2023-02-10T04:01:28;-5.80;99.90
19397;DHT22;9834;48.076;11.878;2023-02-10T04:03:55;-5.80;99.90
19397;DHT22;9834;48.076;11.878;2023-02-10T04:06:23;-5.70;99.90
19397;DHT22;9834;48.076;11.878;2023-02-10T04:08:50;-5.60;99.90
19397;DHT22;9834;48.076;11.878;2023-02-10T04:11:19;-5.60;99.90
19397;DHT22;9834;48.076;11.878;2023-02-10T04:13:46;-5.60;99.90
19397;DHT22;9834;48.076;11.878;2023-02-10T04:16:15;-5.60;99.90
19397;DHT22;9834;48.076;11.878;2023-02-10T04:18:45;-5.70;99.90
19397;DHT22;9834;48.076;11.878;2023-02-10T04:21:13;-5.80;99.90
19397;DHT22;9834;48.076;11.878;2023-02-10T04:23:40;-5.80;99.90
19397;DHT22;9834;48.076;11.878;2023-02-10T04:26:08;-5.80;99.90
19397;DHT22;9834;48.076;11.878;2023-02-10T04:28:37;-5.90;99.90
19397;DHT22;9834;48.076;11.878;2023-02-10T04:31:04;-5.90;99.90
19397;DHT22;9834;48.076;11.878;2023-02-10T04:33:32;-5.90;99.90
19397;DHT22;9834;48.076;11.878;2023-02-10T04:36:00;-5.90;99.90
19397;DHT22;9834;48.076;11.878;2023-02-10T04:38:29;-5.90;99.90
19397;DHT22;9834;48.076;11.878;2023-02-10T04:40:57;-6.00;99.90
19397;DHT22;9834;48.076;11.878;2023-02-10T04:43:24;-6.00;99.90
19397;DHT22;9834;48.076;11.878;2023-02-10T04:45:53;-6.00;99.90
19397;DHT22;9834;48.076;11.878;2023-02-10T04:48:20;-6.00;99.90
19397;DHT22;9834;48.076;11.878;2023-02-10T04:50:48;-6.00;99.90
19397;DHT22;9834;48.076;11.878;2023-02-10T04:53:15;-6.10;99.90
19397;DHT22;9834;48.076;11.878;2023-02-10T04:55:43;-6.10;99.90
19397;DHT22;9834;48.076;11.878;2023-02-10T04:58:11;-6.10;99.90
19397;DHT22;9834;48.076;11.878;2023-02-10T05:00:38;-6.10;99.90
19397;DHT22;9834;48.076;11.878;2023-02-10T05:03:07;-6.10;99.90
19397;DHT22;9834;48.076;11.878;2023-02-10T05:05:35;-6.10;99.90
19397;DHT22;9834;48.076;11.878;2023-02-10T05:08:03;-6.20;99.90
19397;DHT22;9834;48.076;11.878;2023-02-10T05:10:30;-6.20;99.90
19397;DHT22;9834;48.076;11.878;2023-02-10T05:12:57;-6.20;99.90
19397;DHT22;9834;48.076;11.878;2023-02-10T05:15:25;-6.20;99.90
19397;DHT22;9834;48.076;11.878;2023-02-10T05:17:54;-6.20;99.90
19397;DHT22;9834;48.076;11.878;2023-02-10T05:20:23;-6.20;99.90
19397;DHT22;9834;48.076;11.878;2023-02-10T05:22:50;-6.20;99.90
19397;DHT22;9834;48.076;11.878;2023-02-10T05:25:17;-6.20;99.90
19397;DHT22;9834;48.076;11.878;2023-02-10T05:27:45;-6.20;99.90
19397;DHT22;9834;48.076;11.878;2023-02-10T05:30:13;-6.20;99.90
19397;DHT22;9834;48.076;11.878;2023-02-10T05:32:40;-6.30;99.90
19397;DHT22;9834;48.076;11.878;2023-02-10T05:35:09;-6.30;99.90
19397;DHT22;9834;48.076;11.878;2023-02-10T05:37:38;-6.30;99.90
19397;DHT22;9834;48.076;11.878;2023-02-10T05:40:06;-6.30;99.90
19397;DHT22;9834;48.076;11.878;2023-02-10T05:42:33;-6.30;99.90
19397;DHT22;9834;48.076;11.878;2023-02-10T05:45:01;-6.30;99.90
19397;DHT22;9834;48.076;11.878;2023-02-10T05:47:28;-6.30;99.90
19397;DHT22;9834;48.076;11.878;2023-02-10T05:49:56;-6.30;99.90
19397;DHT22;9834;48.076;11.878;2023-02-10T05:52:23;-6.40;99.90
19397;DHT22;9834;48.076;11.878;2023-02-10T05:54:52;-6.40;99.90
19397;DHT22;9834;48.076;11.878;2023-02-10T05:57:19;-6.40;99.90
19397;DHT22;9834;48.076;11.878;2023-02-10T05:59:47;-6.50;99.90
19397;DHT22;9834;48.076;11.878;2023-02-10T06:02:15;-6.50;99.90
19397;DHT22;9834;48.076;11.878;2023-02-10T06:04:42;-6.50;99.90
19397;DHT22;9834;48.076;11.878;2023-02-10T06:07:09;-6.50;99.90
19397;DHT22;9834;48.076;11.878;2023-02-10T06:09:36;-6.50;99.90
19397;DHT22;9834;48.076;11.878;2023-02-10T06:12:06;-6.50;99.90
19397;DHT22;9834;48.076;11.878;2023-02-10T06:14:34;-6.50;99.90
19397;DHT22;9834;48.076;11.878;2023-02-10T06:17:03;-6.50;99.90
19397;DHT22;9834;48.076;11.878;2023-02-10T06:19:34;-6.50;99.90
19397;DHT22;9834;48.076;11.878;2023-02-10T06:22:01;-6.50;99.90
19397;DHT22;9834;48.076;11.878;2023-02-10T06:24:28;-6.50;99.90
19397;DHT22;9834;48.076;11.878;2023-02-10T06:26:56;-6.50;99.90
19397;DHT22;9834;48.076;11.878;2023-02-10T06:29:25;-6.50;99.90
19397;DHT22;9834;48.076;11.878;2023-02-10T06:31:51;-6.50;99.90
19397;DHT22;9834;48.076;11.878;2023-02-10T06:34:19;-6.50;99.90
19397;DHT22;9834;48.076;11.878;2023-02-10T06:36:46;-6.50;99.90
19397;DHT22;9834;48.076;11.878;2023-02-10T06:39:14;-6.50;99.90
19397;DHT22;9834;48.076;11.878;2023-02-10T06:41:41;-6.50;99.90
19397;DHT22;9834;48.076;11.878;2023-02-10T06:44:08;-6.50;99.90
19397;DHT22;9834;48.076;11.878;2023-02-10T06:46:37;-6.40;99.90
19397;DHT22;9834;48.076;11.878;2023-02-10T06:49:04;-6.40;99.90
19397;DHT22;9834;48.076;11.878;2023-02-10T06:51:31;-6.40;99.90
19397;DHT22;9834;48.076;11.878;2023-02-10T06:53:58;-6.40;99.90
19397;DHT22;9834;48.076;11.878;2023-02-10T06:56:25;-6.30;99.90
19397;DHT22;9834;48.076;11.878;2023-02-10T06:58:52;-6.30;99.90
19397;DHT22;9834;48.076;11.878;2023-02-10T07:01:20;-6.20;99.90
19397;DHT22;9834;48.076;11.878;2023-02-10T07:03:49;-6.20;99.90
19397;DHT22;9834;48.076;11.878;2023-02-10T07:06:17;-6.10;99.90
19397;DHT22;9834;48.076;11.878;2023-02-10T07:08:45;-6.10;99.90
19397;DHT22;9834;48.076;11.878;2023-02-10T07:11:13;-6.00;99.90
19397;DHT22;9834;48.076;11.878;2023-02-10T07:13:40;-5.90;99.90
19397;DHT22;9834;48.076;11.878;2023-02-10T07:16:08;-5.80;99.90
19397;DHT22;9834;48.076;11.878;2023-02-10T07:18:37;-5.60;99.90
19397;DHT22;9834;48.076;11.878;2023-02-10T07:21:06;-5.70;99.90
19397;DHT22;9834;48.076;11.878;2023-02-10T07:23:34;-5.60;99.90
19397;DHT22;9834;48.076;11.878;2023-02-10T07:26:02;-5.50;99.90
19397;DHT22;9834;48.076;11.878;2023-02-10T07:28:30;-5.40;99.90
19397;DHT22;9834;48.076;11.878;2023-02-10T07:30:58;-5.30;99.90
19397;DHT22;9834;48.076;11.878;2023-02-10T07:33:25;-5.10;99.90
19397;DHT22;9834;48.076;11.878;2023-02-10T07:35:54;-5.00;99.90
19397;DHT22;9834;48.076;11.878;2023-02-10T07:38:23;-4.90;99.90
19397;DHT22;9834;48.076;11.878;2023-02-10T07:40:50;-4.70;99.90
19397;DHT22;9834;48.076;11.878;2023-02-10T07:43:18;-4.60;99.90
19397;DHT22;9834;48.076;11.878;2023-02-10T07:45:45;-4.50;99.90
19397;DHT22;9834;48.076;11.878;2023-02-10T07:48:12;-4.40;99.90
19397;DHT22;9834;48.076;11.878;2023-02-10T07:50:40;-4.20;99.90
19397;DHT22;9834;48.076;11.878;2023-02-10T07:53:07;-4.10;99.90
19397;DHT22;9834;48.076;11.878;2023-02-10T07:55:38;-3.90;99.90
19397;DHT22;9834;48.076;11.878;2023-02-10T07:58:06;-3.80;99.90
19397;DHT22;9834;48.076;11.878;2023-02-10T08:00:33;-3.60;99.90
19397;DHT22;9834;48.076;11.878;2023-02-10T08:03:01;-3.50;99.90
19397;DHT22;9834;48.076;11.878;2023-02-10T08:05:28;-3.30;99.90
19397;DHT22;9834;48.076;11.878;2023-02-10T08:07:56;-3.20;99.90
19397;DHT22;9834;48.076;11.878;2023-02-10T08:10:23;-3.00;99.90
19397;DHT22;9834;48.076;11.878;2023-02-10T08:12:52;-2.80;99.90
19397;DHT22;9834;48.076;11.878;2023-02-10T08:15:20;-2.60;99.90
19397;DHT22;9834;48.076;11.878;2023-02-10T08:17:48;-2.30;99.90
19397;DHT22;9834;48.076;11.878;2023-02-10T08:20:16;-2.10;99.90
19397;DHT22;9834;48.076;11.878;2023-02-10T08:22:43;-1.80;99.90
19397;DHT22;9834;48.076;11.878;2023-02-10T08:25:11;-1.60;99.90
19397;DHT22;9834;48.076;11.878;2023-02-10T08:27:38;-1.30;99.90
19397;DHT22;9834;48.076;11.878;2023-02-10T08:30:08;-1.00;99.90
19397;DHT22;9834;48.076;11.878;2023-02-10T08:32:36;-0.80;99.90
19397;DHT22;9834;48.076;11.878;2023-02-10T08:35:04;-0.60;99.90
19397;DHT22;9834;48.076;11.878;2023-02-10T08:37:31;-0.50;99.90
19397;DHT22;9834;48.076;11.878;2023-02-10T08:39:59;-0.40;99.90
19397;DHT22;9834;48.076;11.878;2023-02-10T08:42:28;-0.20;99.90
19397;DHT22;9834;48.076;11.878;2023-02-10T08:44:56;-0.10;99.90
19397;DHT22;9834;48.076;11.878;2023-02-10T08:47:24;0.00;99.90
19397;DHT22;9834;48.076;11.878;2023-02-10T08:49:52;0.10;99.90
19397;DHT22;9834;48.076;11.878;2023-02-10T08:52:20;0.20;99.90
19397;DHT22;9834;48.076;11.878;2023-02-10T08:54:48;0.30;99.90
19397;DHT22;9834;48.076;11.878;2023-02-10T08:57:16;0.40;99.90
19397;DHT22;9834;48.076;11.878;2023-02-10T08:59:43;0.50;99.90
19397;DHT22;9834;48.076;11.878;2023-02-10T09:02:12;0.70;99.70
19397;DHT22;9834;48.076;11.878;2023-02-10T09:04:41;0.80;97.70
19397;DHT22;9834;48.076;11.878;2023-02-10T09:07:09;0.80;97.30
19397;DHT22;9834;48.076;11.878;2023-02-10T09:09:39;0.90;96.60
19397;DHT22;9834;48.076;11.878;2023-02-10T09:12:08;1.10;97.00
19397;DHT22;9834;48.076;11.878;2023-02-10T09:14:37;1.20;95.10
19397;DHT22;9834;48.076;11.878;2023-02-10T09:17:04;1.20;94.60
19397;DHT22;9834;48.076;11.878;2023-02-10T09:19:34;1.40;95.20
19397;DHT22;9834;48.076;11.878;2023-02-10T09:22:03;1.40;94.40
19397;DHT22;9834;48.076;11.878;2023-02-10T09:24:31;1.50;94.00
19397;DHT22;9834;48.076;11.878;2023-02-10T09:26:59;1.60;93.40
19397;DHT22;9834;48.076;11.878;2023-02-10T09:29:26;1.80;92.90
19397;DHT22;9834;48.076;11.878;2023-02-10T09:31:54;1.90;92.60
19397;DHT22;9834;48.076;11.878;2023-02-10T09:34:23;2.10;92.00
19397;DHT22;9834;48.076;11.878;2023-02-10T09:36:50;2.30;90.80
19397;DHT22;9834;48.076;11.878;2023-02-10T09:39:22;2.40;90.00
19397;DHT22;9834;48.076;11.878;2023-02-10T09:41:57;2.50;88.90
19397;DHT22;9834;48.076;11.878;2023-02-10T09:44:33;2.50;86.70
19397;DHT22;9834;48.076;11.878;2023-02-10T09:47:23;2.70;86.30
19397;DHT22;9834;48.076;11.878;2023-02-10T09:52:57;3.10;84.10
19397;DHT22;9834;48.076;11.878;2023-02-10T09:55:32;3.20;84.40
19397;DHT22;9834;48.076;11.878;2023-02-10T09:58:03;3.30;80.90
19397;DHT22;9834;48.076;11.878;2023-02-10T10:00:35;3.50;79.10
19397;DHT22;9834;48.076;11.878;2023-02-10T10:03:06;3.50;78.80
19397;DHT22;9834;48.076;11.878;2023-02-10T10:05:45;3.50;78.70
19397;DHT22;9834;48.076;11.878;2023-02-10T10:08:19;3.60;79.80
19397;DHT22;9834;48.076;11.878;2023-02-10T10:10:49;3.70;79.40
19397;DHT22;9834;48.076;11.878;2023-02-10T10:13:21;3.80;77.90
19397;DHT22;9834;48.076;11.878;2023-02-10T10:15:59;4.00;77.50
19397;DHT22;9834;48.076;11.878;2023-02-10T10:18:34;4.00;76.70
19397;DHT22;9834;48.076;11.878;2023-02-10T10:21:10;4.10;76.90
19397;DHT22;9834;48.076;11.878;2023-02-10T10:23:47;4.40;75.40
19397;DHT22;9834;48.076;11.878;2023-02-10T10:26:38;4.60;73.80
19397;DHT22;9834;48.076;11.878;2023-02-10T10:29:23;4.90;72.90
19397;DHT22;9834;48.076;11.878;2023-02-10T10:32:00;5.10;71.30
19397;DHT22;9834;48.076;11.878;2023-02-10T10:34:37;5.30;69.10
19397;DHT22;9834;48.076;11.878;2023-02-10T10:37:12;5.30;69.00
19397;DHT22;9834;48.076;11.878;2023-02-10T10:39:43;5.40;69.00
19397;DHT22;9834;48.076;11.878;2023-02-10T10:42:21;5.50;67.80
19397;DHT22;9834;48.076;11.878;2023-02-10T10:44:50;5.50;67.40
19397;DHT22;9834;48.076;11.878;2023-02-10T10:47:21;5.50;66.70
19397;DHT22;9834;48.076;11.878;2023-02-10T10:49:52;5.50;67.00
19397;DHT22;9834;48.076;11.878;2023-02-10T10:52:27;5.70;66.80
19397;DHT22;9834;48.076;11.878;2023-02-10T10:54:55;5.90;66.70
19397;DHT22;9834;48.076;11.878;2023-02-10T10:57:25;6.20;66.50
19397;DHT22;9834;48.076;11.878;2023-02-10T10:59:56;6.60;65.90
19397;DHT22;9834;48.076;11.878;2023-02-10T11:02:25;6.70;62.70
19397;DHT22;9834;48.076;11.878;2023-02-10T11:05:03;6.90;62.80
19397;DHT22;9834;48.076;11.878;2023-02-10T11:07:32;7.30;62.30
19397;DHT22;9834;48.076;11.878;2023-02-10T11:10:00;7.60;60.00
19397;DHT22;9834;48.076;11.878;2023-02-10T11:12:32;7.90;59.60
19397;DHT22;9834;48.076;11.878;2023-02-10T11:15:01;8.20;58.10
19397;DHT22;9834;48.076;11.878;2023-02-10T11:17:33;8.40;57.90
19397;DHT22;9834;48.076;11.878;2023-02-10T11:20:04;8.00;57.50
19397;DHT22;9834;48.076;11.878;2023-02-10T11:22:32;7.80;56.80
19397;DHT22;9834;48.076;11.878;2023-02-10T11:25:02;7.80;56.90
19397;DHT22;9834;48.076;11.878;2023-02-10T11:27:32;7.90;57.90
19397;DHT22;9834;48.076;11.878;2023-02-10T11:30:00;8.30;56.80
19397;DHT22;9834;48.076;11.878;2023-02-10T11:32:30;8.70;55.80
19397;DHT22;9834;48.076;11.878;2023-02-10T11:35:00;8.50;54.40
19397;DHT22;9834;48.076;11.878;2023-02-10T11:37:30;8.10;54.70
19397;DHT22;9834;48.076;11.878;2023-02-10T11:39:59;8.20;55.60
19397;DHT22;9834;48.076;11.878;2023-02-10T11:42:29;8.40;55.30
19397;DHT22;9834;48.076;11.878;2023-02-10T11:45:02;8.70;54.30
19397;DHT22;9834;48.076;11.878;2023-02-10T11:47:31;8.90;53.40
19397;DHT22;9834;48.076;11.878;2023-02-10T11:49:58;9.30;53.40
19397;DHT22;9834;48.076;11.878;2023-02-10T11:52:28;9.10;52.70
19397;DHT22;9834;48.076;11.878;2023-02-10T11:54:56;9.30;53.10
19397;DHT22;9834;48.076;11.878;2023-02-10T11:57:37;9.40;52.40
19397;DHT22;9834;48.076;11.878;2023-02-10T12:00:31;9.50;52.50
19397;DHT22;9834;48.076;11.878;2023-02-10T12:03:33;9.40;51.70
19397;DHT22;9834;48.076;11.878;2023-02-10T12:06:05;9.50;51.00
19397;DHT22;9834;48.076;11.878;2023-02-10T12:08:43;9.50;51.60
19397;DHT22;9834;48.076;11.878;2023-02-10T12:11:22;9.70;51.10
19397;DHT22;9834;48.076;11.878;2023-02-10T12:14:01;10.50;49.10
19397;DHT22;9834;48.076;11.878;2023-02-10T12:16:36;10.80;47.70
19397;DHT22;9834;48.076;11.878;2023-02-10T12:19:16;11.00;46.00
19397;DHT22;9834;48.076;11.878;2023-02-10T12:22:02;11.30;46.10
19397;DHT22;9834;48.076;11.878;2023-02-10T12:24:51;11.80;45.00
19397;DHT22;9834;48.076;11.878;2023-02-10T12:27:30;11.40;46.30
19397;DHT22;9834;48.076;11.878;2023-02-10T12:30:06;11.80;44.10
19397;DHT22;9834;48.076;11.878;2023-02-10T12:32:44;12.50;42.80
19397;DHT22;9834;48.076;11.878;2023-02-10T12:35:38;13.20;41.40
19397;DHT22;9834;48.076;11.878;2023-02-10T12:38:24;13.90;40.90
19397;DHT22;9834;48.076;11.878;2023-02-10T12:41:01;14.90;39.10
19397;DHT22;9834;48.076;11.878;2023-02-10T12:43:48;14.80;38.30
19397;DHT22;9834;48.076;11.878;2023-02-10T12:46:24;14.80;38.40
19397;DHT22;9834;48.076;11.878;2023-02-10T12:49:25;14.60;37.10
19397;DHT22;9834;48.076;11.878;2023-02-10T12:52:04;14.80;37.00
19397;DHT22;9834;48.076;11.878;2023-02-10T12:54:39;15.50;35.60
19397;DHT22;9834;48.076;11.878;2023-02-10T12:57:12;16.50;34.40
19397;DHT22;9834;48.076;11.878;2023-02-10T12:59:52;16.40;33.70
19397;DHT22;9834;48.076;11.878;2023-02-10T13:02:25;15.90;34.20
19397;DHT22;9834;48.076;11.878;2023-02-10T13:04:57;16.20;34.40
19397;DHT22;9834;48.076;11.878;2023-02-10T13:07:35;16.10;33.00
19397;DHT22;9834;48.076;11.878;2023-02-10T13:10:14;15.60;34.30
19397;DHT22;9834;48.076;11.878;2023-02-10T13:12:44;15.30;34.30
19397;DHT22;9834;48.076;11.878;2023-02-10T13:15:15;15.10;35.60
19397;DHT22;9834;48.076;11.878;2023-02-10T13:17:46;15.60;35.20
19397;DHT22;9834;48.076;11.878;2023-02-10T13:20:25;16.10;34.90
19397;DHT22;9834;48.076;11.878;2023-02-10T13:23:01;15.80;35.10
19397;DHT22;9834;48.076;11.878;2023-02-10T13:25:38;15.60;33.50
19397;DHT22;9834;48.076;11.878;2023-02-10T13:28:17;15.80;34.60
19397;DHT22;9834;48.076;11.878;2023-02-10T13:33:51;15.80;34.40
19397;DHT22;9834;48.076;11.878;2023-02-10T13:36:23;16.00;34.20
19397;DHT22;9834;48.076;11.878;2023-02-10T13:38:59;16.30;33.80
19397;DHT22;9834;48.076;11.878;2023-02-10T13:41:32;16.80;33.70
19397;DHT22;9834;48.076;11.878;2023-02-10T13:44:27;17.50;32.50
19397;DHT22;9834;48.076;11.878;2023-02-10T13:47:08;17.00;31.60
19397;DHT22;9834;48.076;11.878;2023-02-10T13:49:48;16.40;32.40
19397;DHT22;9834;48.076;11.878;2023-02-10T13:52:20;15.10;35.60
19397;DHT22;9834;48.076;11.878;2023-02-10T13:54:58;14.10;37.10
19397;DHT22;9834;48.076;11.878;2023-02-10T13:57:28;14.10;37.70
19397;DHT22;9834;48.076;11.878;2023-02-10T14:00:16;15.20;37.10
19397;DHT22;9834;48.076;11.878;2023-02-10T14:02:45;16.20;35.60
19397;DHT22;9834;48.076;11.878;2023-02-10T14:05:26;16.20;33.80
19397;DHT22;9834;48.076;11.878;2023-02-10T14:07:56;15.70;35.20
19397;DHT22;9834;48.076;11.878;2023-02-10T14:10:32;16.10;34.30
19397;DHT22;9834;48.076;11.878;2023-02-10T14:13:06;16.50;34.80
19397;DHT22;9834;48.076;11.878;2023-02-10T14:15:56;16.80;33.90
19397;DHT22;9834;48.076;11.878;2023-02-10T14:18:25;17.70;33.50
19397;DHT22;9834;48.076;11.878;2023-02-10T14:20:58;17.20;32.90
19397;DHT22;9834;48.076;11.878;2023-02-10T14:23:30;16.50;33.00
19397;DHT22;9834;48.076;11.878;2023-02-10T14:25:59;16.50;33.50
19397;DHT22;9834;48.076;11.878;2023-02-10T14:28:29;16.90;33.60
19397;DHT22;9834;48.076;11.878;2023-02-10T14:31:03;17.80;33.60
19397;DHT22;9834;48.076;11.878;2023-02-10T14:33:33;18.30;31.30
19397;DHT22;9834;48.076;11.878;2023-02-10T14:36:03;18.30;31.30
19397;DHT22;9834;48.076;11.878;2023-02-10T14:38:33;18.20;31.10
19397;DHT22;9834;48.076;11.878;2023-02-10T14:41:02;18.80;31.10
19397;DHT22;9834;48.076;11.878;2023-02-10T14:43:31;18.80;30.30
19397;DHT22;9834;48.076;11.878;2023-02-10T14:46:01;18.20;31.10
19397;DHT22;9834;48.076;11.878;2023-02-10T14:48:30;17.80;31.90
19397;DHT22;9834;48.076;11.878;2023-02-10T14:51:00;17.60;31.50
19397;DHT22;9834;48.076;11.878;2023-02-10T14:53:28;17.20;32.30
19397;DHT22;9834;48.076;11.878;2023-02-10T14:55:58;16.80;32.30
19397;DHT22;9834;48.076;11.878;2023-02-10T14:58:26;16.50;33.60
19397;DHT22;9834;48.076;11.878;2023-02-10T15:01:02;16.80;33.00
19397;DHT22;9834;48.076;11.878;2023-02-10T15:03:31;16.90;33.20
19397;DHT22;9834;48.076;11.878;2023-02-10T15:05:59;16.30;33.50
19397;DHT22;9834;48.076;11.878;2023-02-10T15:08:38;16.20;34.20
19397;DHT22;9834;48.076;11.878;2023-02-10T15:11:12;16.10;34.50
19397;DHT22;9834;48.076;11.878;2023-02-10T15:13:45;16.40;35.30
19397;DHT22;9834;48.076;11.878;2023-02-10T15:16:16;16.90;33.60
19397;DHT22;9834;48.076;11.878;2023-02-10T15:18:46;16.40;33.10
19397;DHT22;9834;48.076;11.878;2023-02-10T15:21:31;16.00;34.00
19397;DHT22;9834;48.076;11.878;2023-02-10T15:23:59;15.50;34.80
19397;DHT22;9834;48.076;11.878;2023-02-10T15:26:29;15.10;35.00
19397;DHT22;9834;48.076;11.878;2023-02-10T15:29:07;14.80;36.00
19397;DHT22;9834;48.076;11.878;2023-02-10T15:31:35;14.30;37.00
19397;DHT22;9834;48.076;11.878;2023-02-10T15:34:14;14.10;37.70
19397;DHT22;9834;48.076;11.878;2023-02-10T15:36:47;13.50;38.10
19397;DHT22;9834;48.076;11.878;2023-02-10T15:39:20;12.20;39.90
19397;DHT22;9834;48.076;11.878;2023-02-10T15:42:03;10.70;42.80
19397;DHT22;9834;48.076;11.878;2023-02-10T15:44:35;9.70;45.80
19397;DHT22;9834;48.076;11.878;2023-02-10T15:47:36;8.70;47.80
19397;DHT22;9834;48.076;11.878;2023-02-10T15:50:04;7.90;50.20
19397;DHT22;9834;48.076;11.878;2023-02-10T15:52:33;7.20;51.60
19397;DHT22;9834;48.076;11.878;2023-02-10T15:55:03;6.80;53.20
19397;DHT22;9834;48.076;11.878;2023-02-10T15:57:32;6.30;54.30
19397;DHT22;9834;48.076;11.878;2023-02-10T16:00:00;5.90;55.30
19397;DHT22;9834;48.076;11.878;2023-02-10T16:02:27;5.60;56.10
19397;DHT22;9834;48.076;11.878;2023-02-10T16:04:55;5.20;57.10
19397;DHT22;9834;48.076;11.878;2023-02-10T16:07:24;4.90;58.40